Airport ID:KO69
Update Time (UTC):22/09/2021 12:21
Wind Speed (Knots):5
Wind Direction (Magnetic):280
Temperature (°C):14
Dew Point (°C):12
Humidity (%):92
Altimeter (inHg):30.1
Density Altitude (Feet):
Visibility:10+
Clouds (Hundreds of feet):BKN038 OVC085
Present Weather:
METAR:METAR KO69 221220Z AUTO 29004KT 10SM BKN038 OVC085 14/12 A3010 RMK A01

The data displayed is for advisory purposes only and is not to be used for flight planning or operations.